Time;durP1;ratioP1;P1;durP2;ratioP2;P2;SDS_P1;SDS_P2;PMS_P1;PMS_P2;Temp;Humidity;BMP_temperature;BMP_pressure;BME280_temperature;BME280_humidity;BME280_pressure;Samples;Min_cycle;Max_cycle;Signal;HPM_P1;HPM_P2
2023/05/20 00:01:30;;;;;;;4.27;3.60;;;;;;;;;;5030009;28;20206;-84
2023/05/20 00:03:56;;;;;;;4.97;4.13;;;;;;;;;;5087317;23;20230;-84
2023/05/20 00:06:23;;;;;;;4.20;3.70;;;;;;;;;;5032955;28;20200;-84
2023/05/20 00:08:49;;;;;;;4.30;3.70;;;;;;;;;;5034689;28;20178;-84
2023/05/20 00:11:15;;;;;;;4.13;3.63;;;;;;;;;;5034005;28;20720;-84
2023/05/20 00:13:41;;;;;;;4.70;3.83;;;;;;;;;;5053094;28;20190;-85
2023/05/20 00:16:07;;;;;;;4.27;3.80;;;;;;;;;;5035091;28;20209;-84
2023/05/20 00:18:33;;;;;;;5.20;3.90;;;;;;;;;;5052828;28;20173;-84
2023/05/20 00:20:59;;;;;;;4.20;3.77;;;;;;;;;;5052081;28;20170;-84
2023/05/20 00:23:25;;;;;;;6.57;4.00;;;;;;;;;;5040815;28;20222;-84
2023/05/20 00:25:51;;;;;;;4.10;3.70;;;;;;;;;;5046262;28;20196;-84
2023/05/20 00:28:18;;;;;;;4.33;3.83;;;;;;;;;;5034907;28;20220;-84
2023/05/20 00:30:44;;;;;;;5.77;3.67;;;;;;;;;;5054628;28;20628;-84
2023/05/20 00:33:11;;;;;;;4.60;4.03;;;;;;;;;;5056490;28;20197;-84
2023/05/20 00:35:37;;;;;;;4.93;3.80;;;;;;;;;;5038249;28;20700;-84
2023/05/20 00:38:03;;;;;;;4.73;3.80;;;;;;;;;;5038130;28;20223;-84
2023/05/20 00:40:29;;;;;;;4.37;3.70;;;;;;;;;;5055871;28;20174;-84
2023/05/20 00:42:55;;;;;;;5.17;4.10;;;;;;;;;;5038164;28;20212;-84
2023/05/20 00:45:21;;;;;;;4.97;3.90;;;;;;;;;;5038550;28;20170;-84
2023/05/20 00:47:47;;;;;;;6.37;4.13;;;;;;;;;;5056217;28;20177;-83
2023/05/20 00:50:13;;;;;;;4.67;4.17;;;;;;;;;;5037754;28;20177;-84
2023/05/20 00:52:43;;;;;;;5.70;3.70;;;;;;;;;;5056127;28;20289;-84
2023/05/20 00:55:09;;;;;;;5.00;4.33;;;;;;;;;;5056158;28;20185;-84
2023/05/20 00:57:35;;;;;;;4.63;4.23;;;;;;;;;;5056105;28;20178;-84
2023/05/20 01:00:02;;;;;;;6.63;4.37;;;;;;;;;;5055839;28;20174;-84
2023/05/20 01:02:28;;;;;;;4.43;4.03;;;;;;;;;;5056144;28;20216;-84
2023/05/20 01:04:55;;;;;;;6.87;4.43;;;;;;;;;;5037897;28;20703;-85
2023/05/20 01:07:21;;;;;;;4.70;4.27;;;;;;;;;;5056250;28;20224;-84
2023/05/20 01:09:47;;;;;;;5.57;4.27;;;;;;;;;;5056010;28;20178;-84
2023/05/20 01:12:29;;;;;;;5.03;4.00;;;;;;;;;;5038255;28;20239;-84
2023/05/20 01:15:01;;;;;;;6.33;4.30;;;;;;;;;;5056491;28;20197;-84
2023/05/20 01:17:31;;;;;;;5.60;4.20;;;;;;;;;;5038595;28;20710;-84
2023/05/20 01:19:58;;;;;;;4.70;4.17;;;;;;;;;;5055949;28;20181;-84
2023/05/20 01:22:25;;;;;;;4.37;3.97;;;;;;;;;;5033958;28;20256;-84
2023/05/20 01:24:54;;;;;;;5.57;4.70;;;;;;;;;;5048084;28;20636;-85
2023/05/20 01:27:21;;;;;;;5.30;4.63;;;;;;;;;;5056401;28;20174;-84
2023/05/20 01:29:49;;;;;;;4.87;4.30;;;;;;;;;;5038672;28;20173;-84
2023/05/20 01:32:19;;;;;;;4.50;4.10;;;;;;;;;;5038920;28;20558;-84
2023/05/20 01:34:46;;;;;;;6.70;4.60;;;;;;;;;;5056312;28;20254;-84
2023/05/20 01:37:12;;;;;;;5.87;4.43;;;;;;;;;;5038599;28;20220;-84
2023/05/20 01:39:43;;;;;;;5.93;4.47;;;;;;;;;;5056005;28;20174;-83
2023/05/20 01:42:10;;;;;;;5.10;4.60;;;;;;;;;;5037393;28;20239;-84
2023/05/20 01:44:36;;;;;;;5.50;4.67;;;;;;;;;;5056423;28;20174;-84
2023/05/20 01:47:02;;;;;;;5.63;4.77;;;;;;;;;;5038669;28;20539;-85
2023/05/20 01:49:29;;;;;;;5.13;4.50;;;;;;;;;;5056736;28;20231;-84
2023/05/20 01:51:55;;;;;;;7.73;4.83;;;;;;;;;;5038346;28;20186;-84
2023/05/20 01:54:21;;;;;;;5.67;4.80;;;;;;;;;;5039319;28;20203;-84
2023/05/20 01:56:47;;;;;;;8.90;4.97;;;;;;;;;;5038742;28;20204;-85
2023/05/20 01:59:13;;;;;;;5.30;4.80;;;;;;;;;;5039446;28;20202;-85
2023/05/20 02:01:39;;;;;;;6.93;4.47;;;;;;;;;;5038332;28;20206;-84
2023/05/20 02:04:05;;;;;;;5.90;4.67;;;;;;;;;;5039031;28;20294;-84
2023/05/20 02:06:31;;;;;;;5.03;4.20;;;;;;;;;;5040160;28;20173;-84
2023/05/20 02:08:56;;;;;;;6.47;4.40;;;;;;;;;;5036180;28;20180;-84
2023/05/20 02:11:23;;;;;;;7.20;4.60;;;;;;;;;;5053174;28;20169;-83
2023/05/20 02:13:50;;;;;;;5.57;4.70;;;;;;;;;;5035636;28;20200;-84
2023/05/20 02:16:16;;;;;;;4.53;4.10;;;;;;;;;;5036063;28;20201;-85
2023/05/20 02:18:42;;;;;;;5.30;4.53;;;;;;;;;;5035500;28;20174;-84
2023/05/20 02:21:08;;;;;;;6.47;4.70;;;;;;;;;;5035182;28;20174;-84
2023/05/20 02:23:34;;;;;;;4.80;4.30;;;;;;;;;;5053248;28;20192;-84
2023/05/20 02:26:01;;;;;;;5.83;4.70;;;;;;;;;;5035706;28;20609;-84
2023/05/20 02:28:27;;;;;;;5.00;4.50;;;;;;;;;;5053534;28;20177;-84
2023/05/20 02:30:53;;;;;;;6.00;4.90;;;;;;;;;;5035098;28;20250;-84
2023/05/20 02:33:19;;;;;;;5.00;4.43;;;;;;;;;;5035060;28;20248;-84
2023/05/20 02:35:45;;;;;;;6.20;4.60;;;;;;;;;;5035733;28;20205;-84
2023/05/20 02:38:14;;;;;;;5.03;4.50;;;;;;;;;;5053475;28;20693;-84
2023/05/20 02:40:43;;;;;;;6.67;4.30;;;;;;;;;;5052575;28;20182;-84
2023/05/20 02:43:09;;;;;;;5.93;4.73;;;;;;;;;;5052905;28;20202;-84
2023/05/20 02:45:35;;;;;;;5.33;4.83;;;;;;;;;;5035483;28;20188;-84
2023/05/20 02:48:01;;;;;;;5.60;4.90;;;;;;;;;;5035214;28;20169;-84
2023/05/20 02:50:27;;;;;;;5.27;4.53;;;;;;;;;;5052697;28;20551;-84
2023/05/20 02:52:53;;;;;;;6.80;4.93;;;;;;;;;;5052622;28;20197;-84
2023/05/20 02:55:20;;;;;;;7.37;5.20;;;;;;;;;;5035389;28;20697;-84
2023/05/20 02:57:46;;;;;;;6.37;4.87;;;;;;;;;;5053025;28;20181;-84
2023/05/20 03:00:12;;;;;;;7.07;5.50;;;;;;;;;;5052706;28;20207;-84
2023/05/20 03:02:38;;;;;;;6.13;5.53;;;;;;;;;;5053026;28;20218;-84
2023/05/20 03:05:04;;;;;;;6.37;5.10;;;;;;;;;;5053244;28;20182;-84
2023/05/20 03:07:31;;;;;;;7.13;5.00;;;;;;;;;;5035125;28;20174;-84
2023/05/20 03:09:58;;;;;;;6.77;5.57;;;;;;;;;;5034557;28;20184;-84
2023/05/20 03:12:25;;;;;;;6.83;5.73;;;;;;;;;;5053060;28;20287;-84
2023/05/20 03:14:54;;;;;;;7.13;5.33;;;;;;;;;;5053451;28;20174;-84
2023/05/20 03:17:20;;;;;;;7.03;6.13;;;;;;;;;;5052638;28;20181;-84
2023/05/20 03:19:46;;;;;;;6.60;5.70;;;;;;;;;;5034553;28;20181;-84
2023/05/20 03:22:13;;;;;;;7.03;6.00;;;;;;;;;;5052694;28;20201;-84
2023/05/20 03:24:39;;;;;;;6.77;5.90;;;;;;;;;;5053082;28;20257;-84
2023/05/20 03:27:05;;;;;;;6.83;5.90;;;;;;;;;;5053051;28;20686;-84
2023/05/20 03:29:32;;;;;;;6.67;6.07;;;;;;;;;;5034977;28;20703;-84
2023/05/20 03:31:58;;;;;;;7.07;6.37;;;;;;;;;;5034635;28;20231;-84
2023/05/20 03:34:26;;;;;;;6.90;6.20;;;;;;;;;;5052831;28;20188;-84
2023/05/20 03:36:53;;;;;;;7.47;6.53;;;;;;;;;;5035155;28;20460;-85
2023/05/20 03:39:19;;;;;;;8.57;6.20;;;;;;;;;;5034937;28;20177;-84
2023/05/20 03:41:45;;;;;;;7.00;6.37;;;;;;;;;;5052643;28;20189;-84
2023/05/20 03:44:11;;;;;;;7.37;6.27;;;;;;;;;;5052736;28;20207;-84
2023/05/20 03:46:37;;;;;;;7.57;6.40;;;;;;;;;;5034878;28;20242;-84
2023/05/20 03:49:03;;;;;;;6.87;6.07;;;;;;;;;;5052860;28;20173;-84
2023/05/20 03:51:29;;;;;;;7.93;6.17;;;;;;;;;;5052575;28;20591;-84
2023/05/20 03:53:55;;;;;;;7.60;6.43;;;;;;;;;;5053407;28;20205;-85
2023/05/20 03:56:21;;;;;;;8.30;6.20;;;;;;;;;;5053015;28;20698;-86
2023/05/20 03:58:47;;;;;;;7.57;6.23;;;;;;;;;;5035488;28;20183;-84
2023/05/20 04:01:14;;;;;;;8.67;7.00;;;;;;;;;;5035170;28;20188;-84
2023/05/20 04:03:43;;;;;;;7.70;6.90;;;;;;;;;;5053590;28;20234;-84
2023/05/20 04:06:09;;;;;;;7.70;6.90;;;;;;;;;;5038307;28;20177;-84
2023/05/20 04:08:35;;;;;;;7.77;6.50;;;;;;;;;;5057261;28;20256;-85
2023/05/20 04:11:01;;;;;;;7.97;6.50;;;;;;;;;;5056718;28;20175;-84
2023/05/20 04:13:27;;;;;;;9.37;7.23;;;;;;;;;;5027849;28;20206;-84
2023/05/20 04:15:53;;;;;;;8.40;7.30;;;;;;;;;;5048443;28;20177;-85
2023/05/20 04:18:19;;;;;;;9.30;7.53;;;;;;;;;;5024366;28;20190;-84
2023/05/20 04:20:45;;;;;;;8.83;7.03;;;;;;;;;;5052305;28;20178;-84
2023/05/20 04:23:12;;;;;;;9.67;7.63;;;;;;;;;;5035841;28;20206;-84
2023/05/20 04:25:40;;;;;;;9.87;7.30;;;;;;;;;;5035979;28;20183;-84
2023/05/20 04:28:06;;;;;;;8.60;7.43;;;;;;;;;;5036272;28;20176;-85
2023/05/20 04:30:32;;;;;;;8.70;7.50;;;;;;;;;;5036671;28;20182;-84
2023/05/20 04:33:01;;;;;;;7.83;7.03;;;;;;;;;;5035228;28;20194;-84
2023/05/20 04:35:28;;;;;;;11.07;7.70;;;;;;;;;;5036983;28;20201;-85
2023/05/20 04:37:54;;;;;;;8.47;7.17;;;;;;;;;;5037030;28;20181;-84
2023/05/20 04:40:20;;;;;;;8.40;7.40;;;;;;;;;;5036638;28;20323;-84
2023/05/20 04:42:46;;;;;;;8.17;7.37;;;;;;;;;;5036661;28;20218;-84
2023/05/20 04:45:12;;;;;;;10.00;7.63;;;;;;;;;;5036164;28;20649;-84
2023/05/20 04:47:38;;;;;;;8.10;7.30;;;;;;;;;;5037124;28;20199;-84
2023/05/20 04:50:11;;;;;;;8.30;7.50;;;;;;;;;;5036390;28;20167;-84
2023/05/20 04:52:44;;;;;;;9.20;8.00;;;;;;;;;;5040927;28;20198;-84
2023/05/20 04:55:11;;;;;;;9.27;7.27;;;;;;;;;;5048610;28;20228;-84
2023/05/20 04:57:40;;;;;;;9.20;7.77;;;;;;;;;;5059297;28;20209;-84
2023/05/20 05:00:06;;;;;;;9.80;7.90;;;;;;;;;;5043682;28;20231;-83
2023/05/20 05:02:33;;;;;;;9.30;8.03;;;;;;;;;;5062355;28;20236;-86
2023/05/20 05:04:59;;;;;;;9.77;8.37;;;;;;;;;;5062778;28;20180;-84
2023/05/20 05:07:25;;;;;;;9.57;8.23;;;;;;;;;;5062337;28;20228;-83
2023/05/20 05:09:51;;;;;;;10.87;8.30;;;;;;;;;;5042192;28;20174;-85
2023/05/20 05:12:17;;;;;;;10.23;8.63;;;;;;;;;;5062334;28;20216;-85
2023/05/20 05:14:43;;;;;;;9.20;8.20;;;;;;;;;;5039969;28;20242;-81
2023/05/20 05:17:09;;;;;;;9.90;8.70;;;;;;;;;;5057012;28;20178;-85
2023/05/20 05:19:35;;;;;;;11.03;8.93;;;;;;;;;;5036788;28;20276;-84
2023/05/20 05:22:01;;;;;;;10.27;9.07;;;;;;;;;;5036527;28;20201;-84
2023/05/20 05:24:27;;;;;;;11.33;8.77;;;;;;;;;;5026634;28;20206;-84
2023/05/20 05:26:53;;;;;;;10.03;8.73;;;;;;;;;;5046065;28;20223;-88
2023/05/20 05:29:19;;;;;;;10.37;9.10;;;;;;;;;;5035896;28;20261;-87
2023/05/20 05:31:45;;;;;;;12.43;9.70;;;;;;;;;;5050314;28;20262;-88
2023/05/20 05:34:11;;;;;;;10.27;9.03;;;;;;;;;;5029472;28;20203;-86
2023/05/20 05:36:38;;;;;;;11.87;9.30;;;;;;;;;;5053984;28;20632;-87
2023/05/20 05:39:04;;;;;;;11.47;10.13;;;;;;;;;;5036096;28;20188;-84
2023/05/20 05:41:30;;;;;;;11.07;9.70;;;;;;;;;;5053882;28;20216;-84
2023/05/20 05:43:56;;;;;;;11.37;10.17;;;;;;;;;;5036422;28;20225;-82
2023/05/20 05:46:22;;;;;;;11.13;9.87;;;;;;;;;;5058053;28;20184;-80
2023/05/20 05:48:49;;;;;;;12.33;10.27;;;;;;;;;;5056731;28;20216;-80
2023/05/20 05:51:15;;;;;;;11.63;9.73;;;;;;;;;;5037682;28;20598;-81
2023/05/20 05:53:41;;;;;;;12.73;10.70;;;;;;;;;;5037744;28;20194;-81
2023/05/20 05:56:07;;;;;;;12.33;10.87;;;;;;;;;;5036935;28;20201;-83
2023/05/20 05:58:33;;;;;;;13.47;10.80;;;;;;;;;;5036363;28;20245;-83
2023/05/20 06:00:59;;;;;;;12.17;10.67;;;;;;;;;;5036147;28;20264;-85
2023/05/20 06:03:25;;;;;;;12.67;10.43;;;;;;;;;;5091010;22;20307;-81
2023/05/20 06:05:51;;;;;;;14.60;11.23;;;;;;;;;;5077203;28;20221;-86
2023/05/20 06:08:17;;;;;;;14.60;11.07;;;;;;;;;;5092793;28;20231;-82
2023/05/20 06:10:48;;;;;;;14.80;11.10;;;;;;;;;;5098222;28;20169;-83
2023/05/20 06:13:14;;;;;;;12.00;10.53;;;;;;;;;;5097974;28;20290;-82
2023/05/20 06:15:40;;;;;;;12.07;10.57;;;;;;;;;;5098454;28;20588;-82
2023/05/20 06:18:06;;;;;;;12.80;11.40;;;;;;;;;;5098364;28;20655;-82
2023/05/20 06:20:32;;;;;;;12.30;10.07;;;;;;;;;;5098138;28;20198;-83
2023/05/20 06:22:58;;;;;;;14.10;12.00;;;;;;;;;;5115713;28;20213;-82
2023/05/20 06:25:24;;;;;;;12.50;10.70;;;;;;;;;;5107891;28;20179;-83
2023/05/20 06:27:51;;;;;;;15.30;11.57;;;;;;;;;;5096369;28;20175;-83
2023/05/20 06:30:17;;;;;;;14.43;11.10;;;;;;;;;;5114214;28;20167;-83
2023/05/20 06:32:43;;;;;;;12.13;10.80;;;;;;;;;;5116962;28;20203;-84
2023/05/20 06:35:09;;;;;;;12.47;10.37;;;;;;;;;;5095743;28;20175;-84
2023/05/20 06:37:35;;;;;;;13.30;11.23;;;;;;;;;;5115462;28;20219;-84
2023/05/20 06:40:01;;;;;;;13.17;11.20;;;;;;;;;;5095121;28;20681;-86
2023/05/20 06:42:27;;;;;;;13.33;11.23;;;;;;;;;;5113661;28;20195;-84
2023/05/20 06:44:53;;;;;;;13.97;11.63;;;;;;;;;;5097343;28;20195;-83
2023/05/20 06:47:19;;;;;;;11.50;10.13;;;;;;;;;;5114278;28;20186;-87
2023/05/20 06:49:45;;;;;;;13.03;11.23;;;;;;;;;;5094481;28;20176;-87
2023/05/20 06:52:11;;;;;;;12.80;10.83;;;;;;;;;;5112984;28;20170;-85
2023/05/20 06:54:40;;;;;;;13.60;10.50;;;;;;;;;;5113059;28;20195;-87
2023/05/20 06:57:07;;;;;;;14.90;12.00;;;;;;;;;;5095236;28;20176;-87
2023/05/20 06:59:33;;;;;;;12.90;10.47;;;;;;;;;;5113211;28;20183;-87
2023/05/20 07:01:59;;;;;;;11.47;10.23;;;;;;;;;;5094308;28;20200;-87
2023/05/20 07:04:25;;;;;;;12.90;11.50;;;;;;;;;;5094683;28;20307;-89
2023/05/20 07:06:51;;;;;;;12.10;10.43;;;;;;;;;;5095436;28;20203;-86
2023/05/20 07:09:17;;;;;;;11.40;10.10;;;;;;;;;;5094822;28;20669;-90
2023/05/20 07:11:43;;;;;;;11.73;10.07;;;;;;;;;;5112360;28;20179;-89
2023/05/20 07:14:10;;;;;;;12.90;10.30;;;;;;;;;;5094681;28;20195;-89
2023/05/20 07:16:36;;;;;;;12.33;9.70;;;;;;;;;;5113081;28;20175;-89
2023/05/20 07:19:02;;;;;;;11.37;10.00;;;;;;;;;;5094356;28;20182;-90
2023/05/20 07:21:28;;;;;;;11.77;10.17;;;;;;;;;;5101427;28;20184;-90
2023/05/20 07:23:54;;;;;;;13.23;10.60;;;;;;;;;;5084907;28;20569;-86
2023/05/20 07:26:20;;;;;;;11.73;9.93;;;;;;;;;;5080737;28;20268;-83
2023/05/20 07:28:46;;;;;;;10.97;9.83;;;;;;;;;;5071685;28;20194;-87
2023/05/20 07:31:13;;;;;;;11.90;10.50;;;;;;;;;;5073431;28;20216;-85
2023/05/20 07:33:39;;;;;;;12.00;10.33;;;;;;;;;;5092126;28;20200;-85
2023/05/20 07:36:05;;;;;;;11.50;10.00;;;;;;;;;;5074115;28;20263;-86
2023/05/20 07:38:31;;;;;;;12.90;9.90;;;;;;;;;;5073989;28;20248;-87
2023/05/20 07:40:57;;;;;;;12.00;10.40;;;;;;;;;;5076601;28;20198;-86
2023/05/20 07:43:23;;;;;;;11.43;10.30;;;;;;;;;;5096065;28;20216;-85
2023/05/20 07:45:49;;;;;;;11.40;10.17;;;;;;;;;;5096202;28;20175;-85
2023/05/20 07:48:15;;;;;;;11.60;10.13;;;;;;;;;;5095689;28;20657;-86
2023/05/20 07:50:41;;;;;;;14.37;10.27;;;;;;;;;;5094983;28;20200;-86
2023/05/20 07:53:07;;;;;;;11.80;10.47;;;;;;;;;;5076915;28;20221;-85
2023/05/20 07:55:34;;;;;;;12.63;10.73;;;;;;;;;;5079004;28;20190;-83
2023/05/20 07:58:01;;;;;;;11.40;10.07;;;;;;;;;;5098633;28;20225;-84
2023/05/20 08:00:27;;;;;;;11.80;10.40;;;;;;;;;;5077817;28;20190;-88
2023/05/20 08:02:53;;;;;;;12.27;9.80;;;;;;;;;;5095896;28;20219;-86
2023/05/20 08:05:21;;;;;;;10.83;9.47;;;;;;;;;;5077971;28;20224;-86
2023/05/20 08:07:47;;;;;;;9.93;8.93;;;;;;;;;;5095545;28;20281;-83
2023/05/20 08:10:13;;;;;;;12.37;9.87;;;;;;;;;;5076882;28;20191;-86
2023/05/20 08:12:39;;;;;;;9.90;8.87;;;;;;;;;;5094844;28;20176;-86
2023/05/20 08:15:05;;;;;;;10.93;9.03;;;;;;;;;;5102032;28;20194;-87
2023/05/20 08:17:33;;;;;;;10.37;9.23;;;;;;;;;;5107561;28;20225;-87
2023/05/20 08:19:59;;;;;;;12.93;9.70;;;;;;;;;;5114115;28;20291;-86
2023/05/20 08:22:25;;;;;;;9.80;8.73;;;;;;;;;;5114924;28;20203;-86
2023/05/20 08:24:51;;;;;;;10.00;8.87;;;;;;;;;;5097318;28;20187;-86
2023/05/20 08:27:17;;;;;;;10.90;9.10;;;;;;;;;;5115962;28;20167;-86
2023/05/20 08:29:44;;;;;;;8.87;8.00;;;;;;;;;;5097031;28;20206;-86
2023/05/20 08:32:10;;;;;;;9.57;8.57;;;;;;;;;;5097514;28;20190;-87
2023/05/20 08:34:36;;;;;;;10.00;8.87;;;;;;;;;;5097164;28;20234;-86
2023/05/20 08:37:02;;;;;;;9.57;8.47;;;;;;;;;;5115763;28;20186;-87
2023/05/20 08:39:28;;;;;;;9.37;8.20;;;;;;;;;;5115801;28;20172;-86
2023/05/20 08:41:54;;;;;;;10.03;8.33;;;;;;;;;;5096748;28;20203;-86
2023/05/20 08:44:21;;;;;;;8.87;7.83;;;;;;;;;;5115285;28;20195;-86
2023/05/20 08:46:47;;;;;;;9.63;8.63;;;;;;;;;;5115413;28;20179;-87
2023/05/20 08:49:13;;;;;;;9.50;8.43;;;;;;;;;;5115169;28;20250;-86
2023/05/20 08:51:39;;;;;;;11.67;8.57;;;;;;;;;;5096176;28;20266;-87
2023/05/20 08:54:06;;;;;;;10.83;9.07;;;;;;;;;;5115418;28;20192;-86
2023/05/20 08:56:32;;;;;;;11.57;9.13;;;;;;;;;;5115207;28;20175;-86
2023/05/20 08:58:58;;;;;;;11.67;9.13;;;;;;;;;;5096811;28;20172;-87
2023/05/20 09:01:24;;;;;;;13.30;8.80;;;;;;;;;;5096608;28;20217;-87
2023/05/20 09:03:51;;;;;;;12.87;9.43;;;;;;;;;;5096651;28;20260;-86
2023/05/20 09:06:20;;;;;;;10.97;8.83;;;;;;;;;;5096709;28;20176;-86
2023/05/20 09:08:50;;;;;;;9.87;8.73;;;;;;;;;;5096821;28;20263;-86
2023/05/20 09:11:16;;;;;;;11.73;8.80;;;;;;;;;;5096373;28;20560;-87
2023/05/20 09:13:42;;;;;;;10.97;9.10;;;;;;;;;;5114753;28;20191;-87
2023/05/20 09:16:10;;;;;;;10.73;8.93;;;;;;;;;;5114841;28;20175;-87
2023/05/20 09:18:39;;;;;;;10.53;8.70;;;;;;;;;;5070970;28;20565;-86
2023/05/20 09:21:08;;;;;;;11.00;8.83;;;;;;;;;;5076682;28;20192;-88
2023/05/20 09:23:37;;;;;;;12.77;9.17;;;;;;;;;;5082105;28;20238;-88
2023/05/20 09:26:03;;;;;;;10.17;9.07;;;;;;;;;;5085647;28;20222;-88
2023/05/20 09:28:29;;;;;;;11.30;9.23;;;;;;;;;;5096137;28;20168;-88
2023/05/20 09:30:58;;;;;;;12.13;8.83;;;;;;;;;;5114527;28;20183;-88
2023/05/20 09:33:29;;;;;;;9.70;8.50;;;;;;;;;;5085312;28;20291;-88
2023/05/20 09:36:02;;;;;;;9.90;8.90;;;;;;;;;;5090745;28;20267;-88
2023/05/20 09:38:34;;;;;;;10.63;9.10;;;;;;;;;;5075922;28;20271;-88
2023/05/20 09:41:01;;;;;;;10.40;8.60;;;;;;;;;;5057038;28;20173;-88
2023/05/20 09:43:28;;;;;;;10.27;9.17;;;;;;;;;;5055832;28;20209;-87
2023/05/20 09:45:54;;;;;;;10.97;9.77;;;;;;;;;;5056041;28;20217;-86
2023/05/20 09:48:21;;;;;;;11.70;8.97;;;;;;;;;;5056422;28;20172;-88
2023/05/20 09:50:48;;;;;;;11.70;9.03;;;;;;;;;;5072723;28;20223;-85
2023/05/20 09:53:14;;;;;;;11.83;9.80;;;;;;;;;;5054192;28;20205;-86
2023/05/20 09:55:40;;;;;;;11.43;9.67;;;;;;;;;;5066346;28;20274;-85
2023/05/20 09:58:06;;;;;;;11.67;9.57;;;;;;;;;;5062454;28;20264;-86
2023/05/20 10:00:33;;;;;;;11.23;9.20;;;;;;;;;;5055416;28;20230;-86
2023/05/20 10:02:59;;;;;;;9.87;8.80;;;;;;;;;;5072796;28;20213;-85
2023/05/20 10:05:35;;;;;;;11.90;9.93;;;;;;;;;;5073762;28;20177;-86
2023/05/20 10:08:20;;;;;;;10.80;9.27;;;;;;;;;;5104784;28;20171;-87
2023/05/20 10:10:49;;;;;;;12.43;10.47;;;;;;;;;;5095290;28;20673;-87
2023/05/20 10:13:34;;;;;;;11.40;9.20;;;;;;;;;;5080155;28;20202;-88
2023/05/20 10:16:19;;;;;;;10.73;9.43;;;;;;;;;;5076133;28;20176;-89
2023/05/20 10:19:04;;;;;;;12.57;9.70;;;;;;;;;;5076358;28;20526;-89
2023/05/20 10:21:30;;;;;;;10.83;9.57;;;;;;;;;;5093787;28;20183;-90
2023/05/20 10:24:05;;;;;;;11.20;9.93;;;;;;;;;;5093748;28;20663;-83
2023/05/20 10:26:35;;;;;;;11.57;10.03;;;;;;;;;;5097507;28;20160;-83
2023/05/20 10:29:01;;;;;;;11.47;10.07;;;;;;;;;;5079986;28;20168;-83
2023/05/20 10:31:27;;;;;;;11.03;9.70;;;;;;;;;;5079208;28;20176;-83
2023/05/20 10:33:53;;;;;;;12.37;9.83;;;;;;;;;;5079453;28;20200;-82
2023/05/20 10:36:26;;;;;;;15.60;10.90;;;;;;;;;;5080392;28;20172;-83
2023/05/20 10:38:56;;;;;;;10.50;9.10;;;;;;;;;;5080395;28;20204;-85
2023/05/20 10:41:25;;;;;;;12.03;9.33;;;;;;;;;;5079560;28;20187;-83
2023/05/20 10:44:04;;;;;;;11.53;9.67;;;;;;;;;;5080543;28;20222;-83
2023/05/20 10:46:31;;;;;;;12.10;10.33;;;;;;;;;;5088095;28;20694;-83
2023/05/20 10:48:57;;;;;;;11.57;10.10;;;;;;;;;;5097883;28;20666;-83
2023/05/20 10:51:24;;;;;;;11.97;10.23;;;;;;;;;;5097850;28;20169;-83
2023/05/20 10:53:54;;;;;;;10.50;9.40;;;;;;;;;;5098470;28;20763;-83
2023/05/20 10:56:21;;;;;;;11.93;10.27;;;;;;;;;;5086380;28;20188;-83
2023/05/20 10:58:47;;;;;;;12.20;10.23;;;;;;;;;;5075735;28;20263;-83
2023/05/20 11:01:13;;;;;;;11.57;10.37;;;;;;;;;;5088122;28;20258;-84
2023/05/20 11:03:46;;;;;;;12.97;11.10;;;;;;;;;;5095783;28;20211;-83
2023/05/20 11:06:12;;;;;;;13.20;11.27;;;;;;;;;;5095975;28;20319;-83
2023/05/20 11:08:38;;;;;;;13.13;11.70;;;;;;;;;;5090035;28;20188;-83
2023/05/20 11:11:05;;;;;;;13.83;11.50;;;;;;;;;;5091590;28;20254;-83
2023/05/20 11:13:31;;;;;;;13.23;11.83;;;;;;;;;;5093388;28;20199;-83
2023/05/20 11:15:58;;;;;;;13.10;11.70;;;;;;;;;;5075016;28;20176;-83
2023/05/20 11:18:29;;;;;;;12.70;11.33;;;;;;;;;;5092947;28;20179;-84
2023/05/20 11:20:55;;;;;;;13.33;11.93;;;;;;;;;;5100597;28;20178;-83
2023/05/20 11:23:22;;;;;;;13.37;11.97;;;;;;;;;;5095041;28;20207;-83
2023/05/20 11:25:50;;;;;;;13.50;11.60;;;;;;;;;;5084874;28;20180;-83
2023/05/20 11:28:16;;;;;;;12.50;11.20;;;;;;;;;;5091177;28;20188;-83
2023/05/20 11:30:43;;;;;;;13.50;11.80;;;;;;;;;;5092945;28;20191;-84
2023/05/20 11:33:11;;;;;;;11.80;10.13;;;;;;;;;;5084156;28;20216;-83
2023/05/20 11:35:43;;;;;;;11.43;9.93;;;;;;;;;;5096281;28;20269;-83
2023/05/20 11:38:10;;;;;;;11.80;10.50;;;;;;;;;;5115332;28;20164;-83
2023/05/20 11:40:35;;;;;;;11.80;10.60;;;;;;;;;;5095574;28;20198;-82
2023/05/20 11:43:02;;;;;;;11.53;9.97;;;;;;;;;;5110351;28;20585;-82
2023/05/20 11:45:48;;;;;;;11.67;10.47;;;;;;;;;;5080820;28;20173;-83
2023/05/20 11:48:14;;;;;;;10.90;9.80;;;;;;;;;;5057042;28;20242;-84
2023/05/20 11:50:42;;;;;;;11.23;10.13;;;;;;;;;;5073471;28;20169;-83
2023/05/20 11:53:08;;;;;;;12.87;10.77;;;;;;;;;;5074305;28;20284;-84
2023/05/20 11:55:44;;;;;;;12.13;10.25;;;;;;;;;;5074003;28;20230;-83
2023/05/20 11:58:10;;;;;;;11.37;10.20;;;;;;;;;;5074627;28;20167;-83
2023/05/20 12:00:36;;;;;;;12.63;11.33;;;;;;;;;;5072807;28;20543;-85
2023/05/20 12:03:02;;;;;;;12.70;11.40;;;;;;;;;;5098924;23;20266;-81
2023/05/20 12:05:28;;;;;;;12.60;11.30;;;;;;;;;;5096474;28;20192;-82
2023/05/20 12:07:54;;;;;;;12.67;11.37;;;;;;;;;;5084543;28;20180;-82
2023/05/20 12:10:20;;;;;;;13.20;11.70;;;;;;;;;;5084358;28;20172;-82
2023/05/20 12:12:46;;;;;;;14.00;12.27;;;;;;;;;;5084160;28;20176;-84
2023/05/20 12:15:12;;;;;;;13.30;11.63;;;;;;;;;;5084314;28;20252;-82
2023/05/20 12:17:46;;;;;;;13.53;11.40;;;;;;;;;;5078745;28;20180;-83
2023/05/20 12:20:14;;;;;;;12.57;11.23;;;;;;;;;;5083435;28;20244;-81
2023/05/20 12:22:40;;;;;;;12.40;10.83;;;;;;;;;;5084230;28;20230;-82
2023/05/20 12:25:06;;;;;;;11.63;10.37;;;;;;;;;;5083786;28;20544;-81
2023/05/20 12:27:32;;;;;;;12.60;11.33;;;;;;;;;;5104511;28;20169;-83
2023/05/20 12:29:58;;;;;;;13.07;10.87;;;;;;;;;;5086403;28;20172;-82
2023/05/20 12:32:25;;;;;;;12.33;10.87;;;;;;;;;;5106070;28;20563;-82
2023/05/20 12:34:51;;;;;;;12.97;10.90;;;;;;;;;;5088850;28;20207;-82
2023/05/20 12:37:17;;;;;;;14.03;10.97;;;;;;;;;;5106679;28;20212;-82
2023/05/20 12:39:43;;;;;;;14.23;10.87;;;;;;;;;;5087290;28;20176;-82
2023/05/20 12:42:09;;;;;;;12.30;10.90;;;;;;;;;;5088230;28;20207;-81
2023/05/20 12:44:35;;;;;;;13.00;11.60;;;;;;;;;;5089753;28;20192;-81
2023/05/20 12:47:01;;;;;;;12.60;11.10;;;;;;;;;;5088567;28;20179;-81
2023/05/20 12:49:27;;;;;;;13.27;10.63;;;;;;;;;;5090048;28;20176;-81
2023/05/20 12:51:53;;;;;;;12.53;11.23;;;;;;;;;;5088600;28;20184;-81
2023/05/20 12:54:19;;;;;;;13.73;10.67;;;;;;;;;;5106297;28;20203;-81
2023/05/20 12:56:47;;;;;;;14.00;11.13;;;;;;;;;;5106497;28;20173;-82
2023/05/20 12:59:13;;;;;;;13.33;10.60;;;;;;;;;;5106033;28;20229;-82
2023/05/20 13:01:39;;;;;;;12.33;10.23;;;;;;;;;;5087289;28;20172;-82
2023/05/20 13:04:05;;;;;;;11.67;9.60;;;;;;;;;;5087454;28;20204;-81
2023/05/20 13:06:31;;;;;;;11.80;10.52;;;;;;;;;;5088916;28;20184;-82
2023/05/20 13:08:57;;;;;;;12.02;9.27;;;;;;;;;;5088373;28;20658;-82
2023/05/20 13:11:23;;;;;;;9.90;8.90;;;;;;;;;;5088044;28;20168;-81
2023/05/20 13:13:50;;;;;;;11.85;9.50;;;;;;;;;;5088513;28;20253;-82
2023/05/20 13:16:16;;;;;;;11.45;9.32;;;;;;;;;;5087512;28;20169;-81
2023/05/20 13:18:42;;;;;;;12.73;10.05;;;;;;;;;;5087748;28;20176;-82
2023/05/20 13:21:08;;;;;;;10.48;9.38;;;;;;;;;;5087159;28;20259;-81
2023/05/20 13:23:35;;;;;;;10.48;9.30;;;;;;;;;;5088255;28;20211;-81
2023/05/20 13:26:02;;;;;;;11.90;10.23;;;;;;;;;;5106677;28;20183;-82
2023/05/20 13:28:28;;;;;;;10.13;8.95;;;;;;;;;;5105526;28;20169;-81
2023/05/20 13:30:54;;;;;;;11.80;9.95;;;;;;;;;;5104859;28;20172;-81
2023/05/20 13:33:21;;;;;;;11.80;9.65;;;;;;;;;;5086946;28;20185;-81
2023/05/20 13:35:47;;;;;;;10.73;9.60;;;;;;;;;;5088010;28;20195;-81
2023/05/20 13:38:13;;;;;;;11.95;9.52;;;;;;;;;;5086977;28;20177;-83
2023/05/20 13:40:39;;;;;;;11.52;10.07;;;;;;;;;;5105801;28;20180;-82
2023/05/20 13:43:06;;;;;;;11.68;10.27;;;;;;;;;;5104721;28;20215;-82
2023/05/20 13:45:32;;;;;;;11.68;10.52;;;;;;;;;;5103105;28;20208;-87
2023/05/20 13:47:58;;;;;;;12.05;10.13;;;;;;;;;;5086833;28;20172;-81
2023/05/20 13:50:25;;;;;;;11.35;10.18;;;;;;;;;;5086698;28;20169;-80
2023/05/20 13:52:51;;;;;;;11.88;10.68;;;;;;;;;;5104001;28;20185;-81
2023/05/20 13:55:17;;;;;;;11.57;10.27;;;;;;;;;;5086906;28;20222;-79
2023/05/20 13:57:43;;;;;;;11.52;10.32;;;;;;;;;;5089783;28;20180;-79
2023/05/20 14:00:09;;;;;;;11.90;10.52;;;;;;;;;;5120176;28;20212;-79
2023/05/20 14:02:35;;;;;;;13.85;11.48;;;;;;;;;;5124184;28;20219;-79
2023/05/20 14:05:02;;;;;;;12.45;10.77;;;;;;;;;;5088077;28;20218;-80
2023/05/20 14:07:28;;;;;;;12.27;10.98;;;;;;;;;;5099869;28;20164;-79
2023/05/20 14:09:54;;;;;;;13.48;11.68;;;;;;;;;;5098450;28;20177;-79
2023/05/20 14:12:21;;;;;;;12.25;10.95;;;;;;;;;;5099151;28;20175;-79
2023/05/20 14:14:47;;;;;;;13.02;10.88;;;;;;;;;;5098907;28;20200;-80
2023/05/20 14:17:13;;;;;;;13.20;11.75;;;;;;;;;;5098919;28;20173;-79
2023/05/20 14:19:39;;;;;;;12.38;11.07;;;;;;;;;;5100215;28;20229;-79
2023/05/20 14:22:05;;;;;;;11.60;10.35;;;;;;;;;;5099933;28;20248;-80
2023/05/20 14:24:31;;;;;;;11.55;10.27;;;;;;;;;;5099982;28;20578;-80
2023/05/20 14:26:57;;;;;;;10.88;9.60;;;;;;;;;;5099417;28;20179;-80
2023/05/20 14:29:24;;;;;;;12.00;10.77;;;;;;;;;;5101283;28;20168;-80